Terminal Aerodrome Forecast
Issued by NWS

Home | Current Version | Previous Version | Text Only | Print | Product List | Glossary On
Versions: 1 2 3 4 5 6 7 8 9 10 11 12 13 14 15 16 17
000
FTUS43 KDTX 011735
TAFMBS
TAF
KMBS 011735Z 0118/0218 05015G25KT 3/4SM -SN BLSN VV007
      TEMPO 0118/0122 1 1/2SM -SN OVC015
     FM020200 03015G25KT 1SM -SN OVC007
     FM020700 03015G25KT 3SM -SN OVC010
     FM021100 34015KT P6SM OVC015
     FM021400 30010KT P6SM BKN035=

USA.gov is the U.S. government's official web portal to all federal, state and local government web resources and services.